This is the latest recevied weather packets stored in our database for station/object KA1AL. If no packets are shown the sender has not sent any weather packets the latest 10 day(s).
| Time | Temp. | Humidity | Pressure | Rain* | Wind** | Luminosity | Snow |
|---|---|---|---|---|---|---|---|
| 1777916312 | 9.44° C | 92% | 1004.1 hPa | 0 mm | - | 178 W/m² | - |
| 1777916009 | 8.89° C | 92% | 1004.4 hPa | 0 mm | - | 113 W/m² | - |
| 1777915706 | 9.44° C | 90% | 1004.5 hPa | 0 mm | - | 165 W/m² | - |
| 1777915402 | 9.44° C | 88% | 1004.6 hPa | 1.78 mm | - | 121 W/m² | - |
| 1777915098 | 10° C | 85% | 1004.5 hPa | 1.78 mm | - | 333 W/m² | - |
| 1777914795 | 10° C | 83% | 1004.2 hPa | 0 mm | - | 285 W/m² | - |
| 1777914492 | 10° C | 83% | 1004.1 hPa | 0 mm | - | 314 W/m² | - |
| 1777914189 | 9.44° C | 84% | 1004.2 hPa | 0 mm | - | 429 W/m² | - |
| 1777913885 | 9.44° C | 84% | 1004.4 hPa | 0 mm | - | 309 W/m² | - |
| 1777913582 | 8.89° C | 85% | 1004.1 hPa | 0 mm | - | 394 W/m² | - |
| 1777913278 | 8.33° C | 87% | 1004.4 hPa | 0 mm | - | 213 W/m² | - |
| 1777912976 | 8.33° C | 88% | 1004.1 hPa | 0 mm | - | 117 W/m² | - |
| 1777912671 | 7.78° C | 91% | 1004.1 hPa | 0 mm | - | 70 W/m² | - |
| 1777912368 | 7.78° C | 90% | 1004.2 hPa | 0 mm | - | 86 W/m² | - |
| 1777912064 | 7.78° C | 91% | 1004 hPa | 0 mm | - | 94 W/m² | - |
| 1777911760 | 8.33° C | 91% | 1004.1 hPa | 0 mm | - | 137 W/m² | - |
| 1777911457 | 7.78° C | 93% | 1004.4 hPa | 1.27 mm | - | 265 W/m² | - |
| 1777911154 | 7.78° C | 90% | 1004.5 hPa | 1.27 mm | - | 229 W/m² | - |
| 1777910851 | 7.78° C | 89% | 1004.2 hPa | 1.27 mm | - | 144 W/m² | - |
| 1777910548 | 8.33° C | 87% | 1004.2 hPa | 0 mm | - | 128 W/m² | - |
| 1777910245 | 8.33° C | 83% | 1004.2 hPa | 0 mm | - | 129 W/m² | - |
| 1777909942 | 9.44° C | 78% | 1004.2 hPa | 0 mm | - | 108 W/m² | - |
| 1777909639 | 9.44° C | 75% | 1003.8 hPa | 0 mm | - | 116 W/m² | - |
| 1777909336 | 9.44° C | 74% | 1003.6 hPa | 0 mm | - | 72 W/m² | - |
| 1777909034 | 10° C | 72% | 1003.8 hPa | 0 mm | - | 131 W/m² | - |
* Rain latest hour (hover to see other rain measurements)
** Current wind speed in m/s (hover to see current wind gust speed)